Terminal Aerodrome Forecast
Issued by NWS

Home | Current Version | Previous Version | Text Only | Print | Product List | Glossary On
Versions: 1 2 3 4 5 6 7 8 9 10 11 12 13 14 15 16 17 18 19 20 21 22 23 24 25 26 27 28 29
000
FTUS46 KLOX 221400 AAB
TAFLAX
TAF AMD
KLAX 221450Z 2215/2318 VRB03KT P6SM BCFG SCT008
     FM221700 26007KT P6SM SKC
     FM222100 26015KT P6SM SKC
     FM230400 26007KT P6SM SKC
     FM230800 VRB03KT P6SM BKN012
     FM231200 VRB03KT 6SM BR OVC007
     FM231700 VRB03KT P6SM BKN010=

USA.gov is the U.S. government's official web portal to all federal, state and local government web resources and services.